sensor_id;sensor_type;location;lat;lon;timestamp;temperature;humidity
39899;DHT22;25571;47.876;10.642;2023-03-21T00:00:56;8.30;99.90
39899;DHT22;25571;47.876;10.642;2023-03-21T00:03:22;8.30;99.90
39899;DHT22;25571;47.876;10.642;2023-03-21T00:05:47;8.30;99.90
39899;DHT22;25571;47.876;10.642;2023-03-21T00:08:17;8.30;99.90
39899;DHT22;25571;47.876;10.642;2023-03-21T00:10:43;8.30;99.90
39899;DHT22;25571;47.876;10.642;2023-03-21T00:13:10;8.20;99.90
39899;DHT22;25571;47.876;10.642;2023-03-21T00:15:37;8.20;99.80
39899;DHT22;25571;47.876;10.642;2023-03-21T00:18:15;8.20;99.70
39899;DHT22;25571;47.876;10.642;2023-03-21T00:20:41;8.00;99.90
39899;DHT22;25571;47.876;10.642;2023-03-21T00:23:11;8.10;99.90
39899;DHT22;25571;47.876;10.642;2023-03-21T00:25:37;8.10;99.90
39899;DHT22;25571;47.876;10.642;2023-03-21T00:28:03;8.10;99.90
39899;DHT22;25571;47.876;10.642;2023-03-21T00:30:28;8.10;99.90
39899;DHT22;25571;47.876;10.642;2023-03-21T00:32:54;8.10;99.90
39899;DHT22;25571;47.876;10.642;2023-03-21T00:35:19;8.10;99.90
39899;DHT22;25571;47.876;10.642;2023-03-21T00:37:45;8.00;99.90
39899;DHT22;25571;47.876;10.642;2023-03-21T00:40:12;8.10;99.90
39899;DHT22;25571;47.876;10.642;2023-03-21T00:42:38;8.10;99.90
39899;DHT22;25571;47.876;10.642;2023-03-21T00:45:04;8.20;99.90
39899;DHT22;25571;47.876;10.642;2023-03-21T00:47:30;8.20;99.90
39899;DHT22;25571;47.876;10.642;2023-03-21T00:49:56;8.20;99.90
39899;DHT22;25571;47.876;10.642;2023-03-21T00:52:22;8.10;99.90
39899;DHT22;25571;47.876;10.642;2023-03-21T00:54:47;8.10;99.90
39899;DHT22;25571;47.876;10.642;2023-03-21T00:57:13;8.10;99.90
39899;DHT22;25571;47.876;10.642;2023-03-21T00:59:39;8.10;99.90
39899;DHT22;25571;47.876;10.642;2023-03-21T01:02:04;8.10;99.90
39899;DHT22;25571;47.876;10.642;2023-03-21T01:04:32;8.10;99.90
39899;DHT22;25571;47.876;10.642;2023-03-21T01:07:01;8.10;99.90
39899;DHT22;25571;47.876;10.642;2023-03-21T01:09:27;8.20;99.90
39899;DHT22;25571;47.876;10.642;2023-03-21T01:11:52;8.10;99.90
39899;DHT22;25571;47.876;10.642;2023-03-21T01:14:19;8.20;99.90
39899;DHT22;25571;47.876;10.642;2023-03-21T01:16:45;8.20;99.90
39899;DHT22;25571;47.876;10.642;2023-03-21T01:19:14;8.20;99.90
39899;DHT22;25571;47.876;10.642;2023-03-21T01:21:41;8.20;99.90
39899;DHT22;25571;47.876;10.642;2023-03-21T01:24:06;8.20;99.90
39899;DHT22;25571;47.876;10.642;2023-03-21T01:26:32;8.20;99.90
39899;DHT22;25571;47.876;10.642;2023-03-21T01:28:58;8.10;99.90
39899;DHT22;25571;47.876;10.642;2023-03-21T01:31:23;8.20;99.90
39899;DHT22;25571;47.876;10.642;2023-03-21T01:33:49;8.20;99.90
39899;DHT22;25571;47.876;10.642;2023-03-21T01:36:21;8.20;99.90
39899;DHT22;25571;47.876;10.642;2023-03-21T01:38:49;8.20;99.90
39899;DHT22;25571;47.876;10.642;2023-03-21T01:41:41;8.20;99.90
39899;DHT22;25571;47.876;10.642;2023-03-21T01:44:16;8.20;99.90
39899;DHT22;25571;47.876;10.642;2023-03-21T01:46:47;8.20;99.90
39899;DHT22;25571;47.876;10.642;2023-03-21T01:49:27;8.10;99.90
39899;DHT22;25571;47.876;10.642;2023-03-21T01:52:00;8.20;99.90
39899;DHT22;25571;47.876;10.642;2023-03-21T01:54:30;8.30;99.90
39899;DHT22;25571;47.876;10.642;2023-03-21T01:56:58;8.20;99.90
39899;DHT22;25571;47.876;10.642;2023-03-21T01:59:32;8.30;99.90
39899;DHT22;25571;47.876;10.642;2023-03-21T02:02:03;8.20;99.90
39899;DHT22;25571;47.876;10.642;2023-03-21T02:04:32;8.20;99.90
39899;DHT22;25571;47.876;10.642;2023-03-21T02:07:03;8.20;99.90
39899;DHT22;25571;47.876;10.642;2023-03-21T02:09:32;8.20;99.90
39899;DHT22;25571;47.876;10.642;2023-03-21T02:11:59;8.10;99.90
39899;DHT22;25571;47.876;10.642;2023-03-21T02:14:25;8.10;99.90
39899;DHT22;25571;47.876;10.642;2023-03-21T02:31:27;8.00;99.90
39899;DHT22;25571;47.876;10.642;2023-03-21T02:39:24;8.00;99.90
39899;DHT22;25571;47.876;10.642;2023-03-21T02:42:07;7.90;99.90
39899;DHT22;25571;47.876;10.642;2023-03-21T02:44:49;8.00;99.90
39899;DHT22;25571;47.876;10.642;2023-03-21T02:52:30;8.00;99.90
39899;DHT22;25571;47.876;10.642;2023-03-21T02:54:57;8.00;99.90
39899;DHT22;25571;47.876;10.642;2023-03-21T02:57:24;7.90;99.90
39899;DHT22;25571;47.876;10.642;2023-03-21T02:59:50;8.00;99.90
39899;DHT22;25571;47.876;10.642;2023-03-21T03:02:21;8.00;99.90
39899;DHT22;25571;47.876;10.642;2023-03-21T03:04:47;7.90;99.90
39899;DHT22;25571;47.876;10.642;2023-03-21T03:15:55;7.90;99.90
39899;DHT22;25571;47.876;10.642;2023-03-21T03:21:30;7.90;99.90
39899;DHT22;25571;47.876;10.642;2023-03-21T03:24:01;8.00;99.90
39899;DHT22;25571;47.876;10.642;2023-03-21T03:26:40;8.00;99.90
39899;DHT22;25571;47.876;10.642;2023-03-21T03:29:10;8.00;99.90
39899;DHT22;25571;47.876;10.642;2023-03-21T03:31:50;8.00;99.90
39899;DHT22;25571;47.876;10.642;2023-03-21T03:34:21;7.90;99.90
39899;DHT22;25571;47.876;10.642;2023-03-21T03:36:54;7.90;99.90
39899;DHT22;25571;47.876;10.642;2023-03-21T03:39:24;8.00;99.90
39899;DHT22;25571;47.876;10.642;2023-03-21T03:42:00;7.90;99.90
39899;DHT22;25571;47.876;10.642;2023-03-21T03:44:26;7.90;99.90
39899;DHT22;25571;47.876;10.642;2023-03-21T03:46:57;8.00;99.90
39899;DHT22;25571;47.876;10.642;2023-03-21T03:49:26;7.90;99.90
39899;DHT22;25571;47.876;10.642;2023-03-21T03:52:08;8.00;99.90
39899;DHT22;25571;47.876;10.642;2023-03-21T03:54:41;7.90;99.90
39899;DHT22;25571;47.876;10.642;2023-03-21T03:57:08;7.90;99.90
39899;DHT22;25571;47.876;10.642;2023-03-21T03:59:36;8.00;99.90
39899;DHT22;25571;47.876;10.642;2023-03-21T04:02:02;7.90;99.90
39899;DHT22;25571;47.876;10.642;2023-03-21T04:04:28;7.90;99.90
39899;DHT22;25571;47.876;10.642;2023-03-21T04:06:56;7.90;99.90
39899;DHT22;25571;47.876;10.642;2023-03-21T04:09:21;7.90;99.90
39899;DHT22;25571;47.876;10.642;2023-03-21T04:11:47;7.90;99.90
39899;DHT22;25571;47.876;10.642;2023-03-21T04:14:13;7.90;99.90
39899;DHT22;25571;47.876;10.642;2023-03-21T04:16:38;7.90;99.90
39899;DHT22;25571;47.876;10.642;2023-03-21T04:19:04;8.00;99.90
39899;DHT22;25571;47.876;10.642;2023-03-21T04:21:29;8.00;99.90
39899;DHT22;25571;47.876;10.642;2023-03-21T04:23:55;8.00;99.90
39899;DHT22;25571;47.876;10.642;2023-03-21T04:26:22;8.10;99.90
39899;DHT22;25571;47.876;10.642;2023-03-21T04:28:49;8.10;99.90
39899;DHT22;25571;47.876;10.642;2023-03-21T04:31:15;8.00;99.90
39899;DHT22;25571;47.876;10.642;2023-03-21T04:33:44;8.10;99.90
39899;DHT22;25571;47.876;10.642;2023-03-21T04:36:12;8.10;99.90
39899;DHT22;25571;47.876;10.642;2023-03-21T04:38:49;8.00;99.90
39899;DHT22;25571;47.876;10.642;2023-03-21T04:41:15;8.10;99.90
39899;DHT22;25571;47.876;10.642;2023-03-21T04:43:41;8.00;99.90
39899;DHT22;25571;47.876;10.642;2023-03-21T04:46:06;8.00;99.90
39899;DHT22;25571;47.876;10.642;2023-03-21T04:48:32;8.00;99.90
39899;DHT22;25571;47.876;10.642;2023-03-21T04:50:58;8.00;99.90
39899;DHT22;25571;47.876;10.642;2023-03-21T04:53:23;7.90;99.90
39899;DHT22;25571;47.876;10.642;2023-03-21T04:55:49;8.00;99.90
39899;DHT22;25571;47.876;10.642;2023-03-21T04:58:15;8.00;99.90
39899;DHT22;25571;47.876;10.642;2023-03-21T05:00:41;8.00;99.90
39899;DHT22;25571;47.876;10.642;2023-03-21T05:03:07;8.00;99.90
39899;DHT22;25571;47.876;10.642;2023-03-21T05:05:35;8.00;99.90
39899;DHT22;25571;47.876;10.642;2023-03-21T05:08:00;7.90;99.90
39899;DHT22;25571;47.876;10.642;2023-03-21T05:10:26;7.90;99.90
39899;DHT22;25571;47.876;10.642;2023-03-21T05:12:52;7.90;99.90
39899;DHT22;25571;47.876;10.642;2023-03-21T05:15:17;8.00;99.90
39899;DHT22;25571;47.876;10.642;2023-03-21T05:17:43;8.00;99.90
39899;DHT22;25571;47.876;10.642;2023-03-21T05:20:10;8.00;99.90
39899;DHT22;25571;47.876;10.642;2023-03-21T05:22:36;8.00;99.90
39899;DHT22;25571;47.876;10.642;2023-03-21T05:25:08;8.10;99.90
39899;DHT22;25571;47.876;10.642;2023-03-21T05:27:34;8.00;99.90
39899;DHT22;25571;47.876;10.642;2023-03-21T05:30:12;8.10;99.90
39899;DHT22;25571;47.876;10.642;2023-03-21T05:32:38;8.10;99.90
39899;DHT22;25571;47.876;10.642;2023-03-21T05:35:04;8.20;99.90
39899;DHT22;25571;47.876;10.642;2023-03-21T05:37:30;8.10;99.90
39899;DHT22;25571;47.876;10.642;2023-03-21T05:39:55;8.20;99.90
39899;DHT22;25571;47.876;10.642;2023-03-21T05:42:21;8.20;99.90
39899;DHT22;25571;47.876;10.642;2023-03-21T05:44:47;8.20;99.90
39899;DHT22;25571;47.876;10.642;2023-03-21T05:47:15;8.30;99.90
39899;DHT22;25571;47.876;10.642;2023-03-21T05:49:41;8.20;99.90
39899;DHT22;25571;47.876;10.642;2023-03-21T05:52:07;8.20;99.90
39899;DHT22;25571;47.876;10.642;2023-03-21T05:54:33;8.30;99.90
39899;DHT22;25571;47.876;10.642;2023-03-21T05:56:58;8.30;99.90
39899;DHT22;25571;47.876;10.642;2023-03-21T05:59:24;8.30;99.90
39899;DHT22;25571;47.876;10.642;2023-03-21T06:01:50;8.40;99.90
39899;DHT22;25571;47.876;10.642;2023-03-21T06:04:15;8.40;99.90
39899;DHT22;25571;47.876;10.642;2023-03-21T06:06:41;8.40;99.90
39899;DHT22;25571;47.876;10.642;2023-03-21T06:09:07;8.40;99.90
39899;DHT22;25571;47.876;10.642;2023-03-21T06:11:35;8.50;99.90
39899;DHT22;25571;47.876;10.642;2023-03-21T06:14:01;8.40;99.90
39899;DHT22;25571;47.876;10.642;2023-03-21T06:16:27;8.40;99.90
39899;DHT22;25571;47.876;10.642;2023-03-21T06:18:53;8.40;99.90
39899;DHT22;25571;47.876;10.642;2023-03-21T06:21:19;8.40;99.90
39899;DHT22;25571;47.876;10.642;2023-03-21T06:23:46;8.50;99.90
39899;DHT22;25571;47.876;10.642;2023-03-21T06:26:12;8.50;99.90
39899;DHT22;25571;47.876;10.642;2023-03-21T06:28:38;8.60;99.90
39899;DHT22;25571;47.876;10.642;2023-03-21T06:31:04;8.60;99.90
39899;DHT22;25571;47.876;10.642;2023-03-21T06:33:29;8.60;99.90
39899;DHT22;25571;47.876;10.642;2023-03-21T06:35:57;8.70;99.90
39899;DHT22;25571;47.876;10.642;2023-03-21T06:38:23;8.60;99.90
39899;DHT22;25571;47.876;10.642;2023-03-21T06:40:49;8.60;99.90
39899;DHT22;25571;47.876;10.642;2023-03-21T06:43:15;8.70;99.90
39899;DHT22;25571;47.876;10.642;2023-03-21T06:45:41;8.80;99.90
39899;DHT22;25571;47.876;10.642;2023-03-21T06:48:07;8.90;99.90
39899;DHT22;25571;47.876;10.642;2023-03-21T06:50:32;9.00;99.90
39899;DHT22;25571;47.876;10.642;2023-03-21T06:52:58;9.10;99.90
39899;DHT22;25571;47.876;10.642;2023-03-21T06:55:25;9.10;99.90
39899;DHT22;25571;47.876;10.642;2023-03-21T06:57:52;9.30;99.90
39899;DHT22;25571;47.876;10.642;2023-03-21T07:00:18;9.30;99.90
39899;DHT22;25571;47.876;10.642;2023-03-21T07:02:44;9.30;99.90
39899;DHT22;25571;47.876;10.642;2023-03-21T07:05:10;9.40;99.90
39899;DHT22;25571;47.876;10.642;2023-03-21T07:07:36;9.50;99.90
39899;DHT22;25571;47.876;10.642;2023-03-21T07:10:02;9.60;99.90
39899;DHT22;25571;47.876;10.642;2023-03-21T07:12:28;9.60;99.90
39899;DHT22;25571;47.876;10.642;2023-03-21T07:14:54;9.70;99.90
39899;DHT22;25571;47.876;10.642;2023-03-21T07:17:19;9.80;99.90
39899;DHT22;25571;47.876;10.642;2023-03-21T07:19:45;9.80;99.90
39899;DHT22;25571;47.876;10.642;2023-03-21T07:22:10;9.90;99.90
39899;DHT22;25571;47.876;10.642;2023-03-21T07:24:36;9.90;99.90
39899;DHT22;25571;47.876;10.642;2023-03-21T07:27:02;9.90;99.90
39899;DHT22;25571;47.876;10.642;2023-03-21T07:29:27;9.80;99.90
39899;DHT22;25571;47.876;10.642;2023-03-21T07:31:53;9.90;99.90
39899;DHT22;25571;47.876;10.642;2023-03-21T07:34:18;9.90;99.90
39899;DHT22;25571;47.876;10.642;2023-03-21T07:36:44;10.00;99.90
39899;DHT22;25571;47.876;10.642;2023-03-21T07:39:09;10.10;99.90
39899;DHT22;25571;47.876;10.642;2023-03-21T07:41:35;10.00;99.90
39899;DHT22;25571;47.876;10.642;2023-03-21T07:44:00;10.10;99.90
39899;DHT22;25571;47.876;10.642;2023-03-21T07:46:27;10.10;99.90
39899;DHT22;25571;47.876;10.642;2023-03-21T07:48:53;10.10;99.90
39899;DHT22;25571;47.876;10.642;2023-03-21T07:51:19;10.10;99.90
39899;DHT22;25571;47.876;10.642;2023-03-21T07:53:44;10.20;99.70
39899;DHT22;25571;47.876;10.642;2023-03-21T07:56:13;10.30;99.40
39899;DHT22;25571;47.876;10.642;2023-03-21T07:58:40;10.30;99.30
39899;DHT22;25571;47.876;10.642;2023-03-21T08:01:05;10.40;99.20
39899;DHT22;25571;47.876;10.642;2023-03-21T08:03:31;10.50;99.30
39899;DHT22;25571;47.876;10.642;2023-03-21T08:05:59;10.60;98.80
39899;DHT22;25571;47.876;10.642;2023-03-21T08:08:25;10.50;98.80
39899;DHT22;25571;47.876;10.642;2023-03-21T08:10:51;10.70;98.90
39899;DHT22;25571;47.876;10.642;2023-03-21T08:13:17;10.80;98.60
39899;DHT22;25571;47.876;10.642;2023-03-21T08:15:42;11.00;98.20
39899;DHT22;25571;47.876;10.642;2023-03-21T08:18:09;11.10;97.80
39899;DHT22;25571;47.876;10.642;2023-03-21T08:20:35;11.40;97.20
39899;DHT22;25571;47.876;10.642;2023-03-21T08:23:00;11.70;96.70
39899;DHT22;25571;47.876;10.642;2023-03-21T08:25:26;12.10;96.30
39899;DHT22;25571;47.876;10.642;2023-03-21T08:27:52;12.70;95.40
39899;DHT22;25571;47.876;10.642;2023-03-21T08:30:20;13.10;94.50
39899;DHT22;25571;47.876;10.642;2023-03-21T08:32:46;13.30;93.70
39899;DHT22;25571;47.876;10.642;2023-03-21T08:35:13;13.60;93.50
39899;DHT22;25571;47.876;10.642;2023-03-21T08:37:40;13.60;93.20
39899;DHT22;25571;47.876;10.642;2023-03-21T08:40:09;13.70;93.00
39899;DHT22;25571;47.876;10.642;2023-03-21T08:42:36;13.50;92.90
39899;DHT22;25571;47.876;10.642;2023-03-21T08:45:03;13.70;93.00
39899;DHT22;25571;47.876;10.642;2023-03-21T08:47:29;14.00;92.60
39899;DHT22;25571;47.876;10.642;2023-03-21T08:49:56;14.30;91.80
39899;DHT22;25571;47.876;10.642;2023-03-21T08:52:21;14.40;90.80
39899;DHT22;25571;47.876;10.642;2023-03-21T08:54:47;14.80;90.80
39899;DHT22;25571;47.876;10.642;2023-03-21T08:57:13;15.50;89.20
39899;DHT22;25571;47.876;10.642;2023-03-21T08:59:39;15.40;88.30
39899;DHT22;25571;47.876;10.642;2023-03-21T09:02:05;15.40;88.90
39899;DHT22;25571;47.876;10.642;2023-03-21T09:04:31;15.30;88.00
39899;DHT22;25571;47.876;10.642;2023-03-21T09:06:57;15.40;86.70
39899;DHT22;25571;47.876;10.642;2023-03-21T09:09:26;15.50;85.80
39899;DHT22;25571;47.876;10.642;2023-03-21T09:11:52;15.70;81.60
39899;DHT22;25571;47.876;10.642;2023-03-21T09:14:18;15.90;81.00
39899;DHT22;25571;47.876;10.642;2023-03-21T09:16:43;16.30;79.20
39899;DHT22;25571;47.876;10.642;2023-03-21T09:19:09;16.70;77.70
39899;DHT22;25571;47.876;10.642;2023-03-21T09:21:35;16.70;75.50
39899;DHT22;25571;47.876;10.642;2023-03-21T09:24:01;16.70;75.40
39899;DHT22;25571;47.876;10.642;2023-03-21T09:26:27;16.50;74.50
39899;DHT22;25571;47.876;10.642;2023-03-21T09:28:54;16.50;75.60
39899;DHT22;25571;47.876;10.642;2023-03-21T09:31:20;16.40;74.20
39899;DHT22;25571;47.876;10.642;2023-03-21T09:33:48;16.50;74.70
39899;DHT22;25571;47.876;10.642;2023-03-21T09:36:14;16.80;73.20
39899;DHT22;25571;47.876;10.642;2023-03-21T09:38:42;16.90;72.10
39899;DHT22;25571;47.876;10.642;2023-03-21T09:41:13;17.10;70.80
39899;DHT22;25571;47.876;10.642;2023-03-21T09:46:59;17.20;71.80
39899;DHT22;25571;47.876;10.642;2023-03-21T09:49:33;17.40;72.40
39899;DHT22;25571;47.876;10.642;2023-03-21T09:52:12;17.80;71.40
39899;DHT22;25571;47.876;10.642;2023-03-21T09:54:42;18.40;68.80
39899;DHT22;25571;47.876;10.642;2023-03-21T09:59:57;17.40;71.00
39899;DHT22;25571;47.876;10.642;2023-03-21T10:02:39;17.10;71.20
39899;DHT22;25571;47.876;10.642;2023-03-21T10:07:42;17.00;73.50
39899;DHT22;25571;47.876;10.642;2023-03-21T10:10:15;17.10;72.80
39899;DHT22;25571;47.876;10.642;2023-03-21T10:12:44;17.10;71.40
39899;DHT22;25571;47.876;10.642;2023-03-21T10:15:15;17.00;71.60
39899;DHT22;25571;47.876;10.642;2023-03-21T10:17:46;17.10;73.70
39899;DHT22;25571;47.876;10.642;2023-03-21T10:20:17;16.90;71.80
39899;DHT22;25571;47.876;10.642;2023-03-21T10:22:45;16.90;71.90
39899;DHT22;25571;47.876;10.642;2023-03-21T10:25:16;16.90;73.30
39899;DHT22;25571;47.876;10.642;2023-03-21T10:27:42;16.90;75.00
39899;DHT22;25571;47.876;10.642;2023-03-21T10:30:58;17.00;73.40
39899;DHT22;25571;47.876;10.642;2023-03-21T10:33:01;17.00;73.00
39899;DHT22;25571;47.876;10.642;2023-03-21T10:35:30;16.90;72.40
39899;DHT22;25571;47.876;10.642;2023-03-21T10:37:59;17.00;72.50
39899;DHT22;25571;47.876;10.642;2023-03-21T10:40:26;17.00;74.30
39899;DHT22;25571;47.876;10.642;2023-03-21T10:42:55;16.90;74.50
39899;DHT22;25571;47.876;10.642;2023-03-21T10:45:22;17.00;73.00
39899;DHT22;25571;47.876;10.642;2023-03-21T10:47:49;17.00;72.90
39899;DHT22;25571;47.876;10.642;2023-03-21T10:50:18;16.90;73.50
39899;DHT22;25571;47.876;10.642;2023-03-21T10:52:50;16.70;73.20
39899;DHT22;25571;47.876;10.642;2023-03-21T10:55:30;16.80;73.80
39899;DHT22;25571;47.876;10.642;2023-03-21T10:58:06;16.70;76.90
39899;DHT22;25571;47.876;10.642;2023-03-21T11:00:42;16.80;75.20
39899;DHT22;25571;47.876;10.642;2023-03-21T11:03:31;16.90;74.30
39899;DHT22;25571;47.876;10.642;2023-03-21T11:06:04;16.90;73.40
39899;DHT22;25571;47.876;10.642;2023-03-21T11:08:40;17.20;73.20
39899;DHT22;25571;47.876;10.642;2023-03-21T11:11:09;17.30;72.60
39899;DHT22;25571;47.876;10.642;2023-03-21T11:13:42;17.40;73.50
39899;DHT22;25571;47.876;10.642;2023-03-21T11:16:09;17.40;72.70
39899;DHT22;25571;47.876;10.642;2023-03-21T11:18:40;17.60;72.10
39899;DHT22;25571;47.876;10.642;2023-03-21T11:21:09;17.60;72.10
39899;DHT22;25571;47.876;10.642;2023-03-21T11:23:41;17.60;70.70
39899;DHT22;25571;47.876;10.642;2023-03-21T11:26:18;17.50;72.20
39899;DHT22;25571;47.876;10.642;2023-03-21T11:28:48;17.60;71.60
39899;DHT22;25571;47.876;10.642;2023-03-21T11:31:15;17.50;73.80
39899;DHT22;25571;47.876;10.642;2023-03-21T11:33:49;17.70;72.40
39899;DHT22;25571;47.876;10.642;2023-03-21T11:38:41;17.80;72.10
39899;DHT22;25571;47.876;10.642;2023-03-21T11:41:07;17.90;69.90
39899;DHT22;25571;47.876;10.642;2023-03-21T11:43:37;18.10;71.20
39899;DHT22;25571;47.876;10.642;2023-03-21T11:48:30;18.40;70.10
39899;DHT22;25571;47.876;10.642;2023-03-21T11:56:55;18.30;66.80
39899;DHT22;25571;47.876;10.642;2023-03-21T12:05:02;18.20;69.00
39899;DHT22;25571;47.876;10.642;2023-03-21T12:20:53;18.10;69.60
39899;DHT22;25571;47.876;10.642;2023-03-21T12:36:43;17.90;71.30
39899;DHT22;25571;47.876;10.642;2023-03-21T12:44:14;18.10;69.40
39899;DHT22;25571;47.876;10.642;2023-03-21T12:46:53;18.00;67.70
39899;DHT22;25571;47.876;10.642;2023-03-21T12:49:37;18.10;68.30
39899;DHT22;25571;47.876;10.642;2023-03-21T12:52:09;18.20;67.80
39899;DHT22;25571;47.876;10.642;2023-03-21T12:54:43;18.30;67.50
39899;DHT22;25571;47.876;10.642;2023-03-21T12:57:32;18.30;66.50
39899;DHT22;25571;47.876;10.642;2023-03-21T13:00:14;18.40;67.60
39899;DHT22;25571;47.876;10.642;2023-03-21T13:02:50;18.40;66.40
39899;DHT22;25571;47.876;10.642;2023-03-21T13:05:36;18.20;65.70
39899;DHT22;25571;47.876;10.642;2023-03-21T13:10:44;18.20;65.80
39899;DHT22;25571;47.876;10.642;2023-03-21T13:13:24;18.10;67.20
39899;DHT22;25571;47.876;10.642;2023-03-21T13:19:00;18.30;68.10
39899;DHT22;25571;47.876;10.642;2023-03-21T13:21:49;18.30;65.60
39899;DHT22;25571;47.876;10.642;2023-03-21T13:27:06;17.90;65.40
39899;DHT22;25571;47.876;10.642;2023-03-21T13:29:47;17.90;66.00
39899;DHT22;25571;47.876;10.642;2023-03-21T13:32:15;17.90;66.00
39899;DHT22;25571;47.876;10.642;2023-03-21T13:34:43;17.80;66.00
39899;DHT22;25571;47.876;10.642;2023-03-21T13:37:16;17.80;67.30
39899;DHT22;25571;47.876;10.642;2023-03-21T13:39:45;17.70;67.60
39899;DHT22;25571;47.876;10.642;2023-03-21T13:42:21;17.80;67.80
39899;DHT22;25571;47.876;10.642;2023-03-21T13:44:51;17.80;68.80
39899;DHT22;25571;47.876;10.642;2023-03-21T13:47:54;17.70;67.40
39899;DHT22;25571;47.876;10.642;2023-03-21T13:50:23;17.50;67.20
39899;DHT22;25571;47.876;10.642;2023-03-21T13:53:10;17.60;68.20
39899;DHT22;25571;47.876;10.642;2023-03-21T13:55:45;17.40;67.10
39899;DHT22;25571;47.876;10.642;2023-03-21T14:01:15;17.40;64.50
39899;DHT22;25571;47.876;10.642;2023-03-21T14:03:45;17.40;62.20
39899;DHT22;25571;47.876;10.642;2023-03-21T14:06:11;17.40;61.90
39899;DHT22;25571;47.876;10.642;2023-03-21T14:08:40;17.30;62.40
39899;DHT22;25571;47.876;10.642;2023-03-21T14:11:12;17.20;62.40
39899;DHT22;25571;47.876;10.642;2023-03-21T14:13:41;17.20;63.40
39899;DHT22;25571;47.876;10.642;2023-03-21T14:16:15;17.20;61.90
39899;DHT22;25571;47.876;10.642;2023-03-21T14:18:53;17.20;62.50
39899;DHT22;25571;47.876;10.642;2023-03-21T14:21:26;17.30;61.70
39899;DHT22;25571;47.876;10.642;2023-03-21T14:24:02;17.30;61.40
39899;DHT22;25571;47.876;10.642;2023-03-21T14:26:39;17.20;58.60
39899;DHT22;25571;47.876;10.642;2023-03-21T14:29:07;17.10;58.80
39899;DHT22;25571;47.876;10.642;2023-03-21T14:31:34;17.00;58.00
39899;DHT22;25571;47.876;10.642;2023-03-21T14:34:01;17.00;59.00
39899;DHT22;25571;47.876;10.642;2023-03-21T14:36:30;16.90;58.70
39899;DHT22;25571;47.876;10.642;2023-03-21T14:41:28;16.80;61.10
39899;DHT22;25571;47.876;10.642;2023-03-21T14:44:40;16.90;61.30
39899;DHT22;25571;47.876;10.642;2023-03-21T14:47:06;16.80;59.40
39899;DHT22;25571;47.876;10.642;2023-03-21T14:49:34;16.70;56.30
39899;DHT22;25571;47.876;10.642;2023-03-21T14:52:02;16.70;57.10
39899;DHT22;25571;47.876;10.642;2023-03-21T14:54:29;16.70;56.80
39899;DHT22;25571;47.876;10.642;2023-03-21T14:57:03;16.70;56.80
39899;DHT22;25571;47.876;10.642;2023-03-21T14:59:33;16.70;57.60
39899;DHT22;25571;47.876;10.642;2023-03-21T15:02:04;16.70;58.20
39899;DHT22;25571;47.876;10.642;2023-03-21T15:04:30;16.70;58.30
39899;DHT22;25571;47.876;10.642;2023-03-21T15:06:59;16.60;58.10
39899;DHT22;25571;47.876;10.642;2023-03-21T15:09:30;16.60;57.70
39899;DHT22;25571;47.876;10.642;2023-03-21T15:11:57;16.60;58.10
39899;DHT22;25571;47.876;10.642;2023-03-21T15:14:29;16.60;58.60
39899;DHT22;25571;47.876;10.642;2023-03-21T15:16:56;16.70;59.80
39899;DHT22;25571;47.876;10.642;2023-03-21T15:19:28;16.70;60.40
39899;DHT22;25571;47.876;10.642;2023-03-21T15:22:07;16.60;59.70
39899;DHT22;25571;47.876;10.642;2023-03-21T15:24:40;16.70;60.10
39899;DHT22;25571;47.876;10.642;2023-03-21T15:27:12;16.60;60.60
39899;DHT22;25571;47.876;10.642;2023-03-21T15:29:39;16.60;60.70
39899;DHT22;25571;47.876;10.642;2023-03-21T15:32:14;16.60;60.60
39899;DHT22;25571;47.876;10.642;2023-03-21T15:34:41;16.60;59.40
39899;DHT22;25571;47.876;10.642;2023-03-21T15:37:14;16.60;60.00
39899;DHT22;25571;47.876;10.642;2023-03-21T15:39:41;16.50;59.80
39899;DHT22;25571;47.876;10.642;2023-03-21T15:44:55;16.40;58.60
39899;DHT22;25571;47.876;10.642;2023-03-21T15:47:41;16.30;59.60
39899;DHT22;25571;47.876;10.642;2023-03-21T15:50:15;16.20;57.50
39899;DHT22;25571;47.876;10.642;2023-03-21T15:52:41;16.20;57.50
39899;DHT22;25571;47.876;10.642;2023-03-21T15:55:49;16.10;57.50
39899;DHT22;25571;47.876;10.642;2023-03-21T15:58:22;16.00;57.20
39899;DHT22;25571;47.876;10.642;2023-03-21T16:00:53;15.90;57.70
39899;DHT22;25571;47.876;10.642;2023-03-21T16:03:28;15.90;58.30
39899;DHT22;25571;47.876;10.642;2023-03-21T16:06:05;15.90;57.60
39899;DHT22;25571;47.876;10.642;2023-03-21T16:08:36;15.80;57.40
39899;DHT22;25571;47.876;10.642;2023-03-21T16:11:08;15.80;58.20
39899;DHT22;25571;47.876;10.642;2023-03-21T16:13:33;15.70;59.00
39899;DHT22;25571;47.876;10.642;2023-03-21T16:15:59;15.70;58.40
39899;DHT22;25571;47.876;10.642;2023-03-21T16:18:24;15.60;59.10
39899;DHT22;25571;47.876;10.642;2023-03-21T16:20:50;15.50;59.20
39899;DHT22;25571;47.876;10.642;2023-03-21T16:23:17;15.50;59.30
39899;DHT22;25571;47.876;10.642;2023-03-21T16:25:43;15.40;61.50
39899;DHT22;25571;47.876;10.642;2023-03-21T16:28:15;15.30;61.60
39899;DHT22;25571;47.876;10.642;2023-03-21T16:30:41;15.40;63.50
39899;DHT22;25571;47.876;10.642;2023-03-21T16:33:10;15.30;63.40
39899;DHT22;25571;47.876;10.642;2023-03-21T16:35:36;15.20;63.70
39899;DHT22;25571;47.876;10.642;2023-03-21T16:38:02;15.20;65.40
39899;DHT22;25571;47.876;10.642;2023-03-21T16:40:33;15.10;65.10
39899;DHT22;25571;47.876;10.642;2023-03-21T16:42:59;15.20;66.50
39899;DHT22;25571;47.876;10.642;2023-03-21T16:45:25;15.20;67.30
39899;DHT22;25571;47.876;10.642;2023-03-21T16:47:53;15.00;68.00
39899;DHT22;25571;47.876;10.642;2023-03-21T16:52:54;14.90;69.30
39899;DHT22;25571;47.876;10.642;2023-03-21T16:55:20;14.90;68.60
39899;DHT22;25571;47.876;10.642;2023-03-21T16:57:46;14.80;67.30
39899;DHT22;25571;47.876;10.642;2023-03-21T17:00:15;14.80;67.90
39899;DHT22;25571;47.876;10.642;2023-03-21T17:02:44;14.80;67.60
39899;DHT22;25571;47.876;10.642;2023-03-21T17:05:09;14.70;67.50
39899;DHT22;25571;47.876;10.642;2023-03-21T17:07:36;14.60;68.00
39899;DHT22;25571;47.876;10.642;2023-03-21T17:10:02;14.60;68.80
39899;DHT22;25571;47.876;10.642;2023-03-21T17:12:27;14.60;69.40
39899;DHT22;25571;47.876;10.642;2023-03-21T17:14:53;14.50;68.70
39899;DHT22;25571;47.876;10.642;2023-03-21T17:17:18;14.50;69.30
39899;DHT22;25571;47.876;10.642;2023-03-21T17:19:44;14.40;70.10
39899;DHT22;25571;47.876;10.642;2023-03-21T17:22:10;14.40;68.90
39899;DHT22;25571;47.876;10.642;2023-03-21T17:24:36;14.40;70.20
39899;DHT22;25571;47.876;10.642;2023-03-21T17:27:03;14.30;69.80